createdAt,value
2018-09-14T00:00:37.448Z,7.87
2018-09-14T00:03:08.592Z,7.97
2018-09-14T00:05:39.318Z,8.77
2018-09-14T00:08:10.179Z,8.07
2018-09-14T00:10:40.919Z,8.93
2018-09-14T00:13:11.616Z,6.27
2018-09-14T00:15:42.614Z,7.83
2018-09-14T00:18:13.356Z,7.30
2018-09-14T00:20:44.085Z,8.30
2018-09-14T00:23:14.803Z,7.63
2018-09-14T00:25:45.569Z,7.13
2018-09-14T00:28:16.283Z,6.00
2018-09-14T00:30:47.010Z,6.57
2018-09-14T00:33:17.760Z,7.53
2018-09-14T00:35:48.675Z,6.27
2018-09-14T00:38:19.448Z,6.93
2018-09-14T00:40:50.352Z,7.67
2018-09-14T00:43:21.050Z,6.40
2018-09-14T00:45:51.843Z,7.57
2018-09-14T00:48:22.912Z,6.80
2018-09-14T00:50:54.701Z,9.07
2018-09-14T00:53:25.505Z,7.90
2018-09-14T00:55:56.898Z,7.17
2018-09-14T00:58:27.676Z,5.53
2018-09-14T01:00:58.445Z,5.63
2018-09-14T01:03:29.300Z,9.90
2018-09-14T01:06:00.036Z,7.40
2018-09-14T01:08:30.768Z,7.90
2018-09-14T01:11:01.481Z,6.63
2018-09-14T01:13:32.308Z,6.77
2018-09-14T01:16:02.999Z,7.40
2018-09-14T01:18:34.435Z,8.23
2018-09-14T01:21:05.348Z,7.00
2018-09-14T01:23:36.086Z,6.37
2018-09-14T01:26:06.983Z,7.27
2018-09-14T01:28:37.696Z,7.97
2018-09-14T01:31:08.472Z,8.33
2018-09-14T01:33:39.208Z,8.27
2018-09-14T01:36:12.361Z,7.03
2018-09-14T01:38:43.114Z,7.77
2018-09-14T01:41:14.006Z,7.23
2018-09-14T01:43:44.721Z,6.63
2018-09-14T01:46:15.424Z,7.87
2018-09-14T01:48:46.109Z,9.17
2018-09-14T01:51:17.013Z,9.63
2018-09-14T01:53:47.742Z,6.77
2018-09-14T01:56:18.565Z,8.20
2018-09-14T01:58:49.247Z,10.30
2018-09-14T02:01:20.210Z,11.47
2018-09-14T02:03:51.152Z,8.47
2018-09-14T02:06:22.349Z,9.17
2018-09-14T02:08:53.229Z,10.10
2018-09-14T02:11:24.116Z,10.00
2018-09-14T02:13:54.834Z,9.77
2018-09-14T02:16:25.637Z,9.50
2018-09-14T02:18:56.424Z,9.73
2018-09-14T02:21:27.201Z,10.27
2018-09-14T02:23:58.053Z,9.40
2018-09-14T02:26:28.785Z,9.00
2018-09-14T02:28:59.536Z,10.97
2018-09-14T02:31:30.276Z,10.40
2018-09-14T02:34:01.433Z,10.43
2018-09-14T02:36:32.177Z,9.67
2018-09-14T02:39:03.084Z,10.07
2018-09-14T02:41:33.899Z,8.70
2018-09-14T02:44:04.660Z,9.67
2018-09-14T02:46:35.404Z,8.53
2018-09-14T02:49:06.360Z,8.83
2018-09-14T02:51:37.162Z,8.50
2018-09-14T02:54:08.816Z,8.03
2018-09-14T02:56:39.465Z,8.53
2018-09-14T02:59:10.171Z,8.37
2018-09-14T03:01:40.904Z,8.10
2018-09-14T03:04:11.589Z,8.37
2018-09-14T03:06:42.444Z,9.50
2018-09-14T03:09:13.147Z,8.47
2018-09-14T03:11:43.875Z,9.03
2018-09-14T03:14:14.587Z,9.17
2018-09-14T03:16:45.352Z,9.40
2018-09-14T03:19:16.167Z,9.67
2018-09-14T03:21:47.054Z,9.63
2018-09-14T03:24:17.725Z,9.37
2018-09-14T03:26:48.601Z,9.07
2018-09-14T03:29:19.436Z,9.30
2018-09-14T03:31:50.178Z,10.17
2018-09-14T03:34:21.008Z,9.57
2018-09-14T03:36:51.721Z,9.33
2018-09-14T03:39:22.582Z,9.80
2018-09-14T03:41:53.289Z,10.13
2018-09-14T03:44:24.075Z,10.47
2018-09-14T03:46:55.040Z,11.23
2018-09-14T03:49:25.794Z,10.37
2018-09-14T03:51:56.512Z,10.43
2018-09-14T03:54:27.354Z,11.20
2018-09-14T03:56:58.336Z,9.87
2018-09-14T03:59:29.604Z,10.03
2018-09-14T04:02:00.405Z,10.50
2018-09-14T04:04:31.290Z,10.37
2018-09-14T04:07:02.028Z,9.77
2018-09-14T04:09:32.747Z,9.87
2018-09-14T04:12:03.601Z,11.27
2018-09-14T04:14:34.539Z,11.23
2018-09-14T04:17:08.649Z,11.30
2018-09-14T04:19:39.379Z,10.77
2018-09-14T04:22:10.198Z,12.13
2018-09-14T04:24:41.069Z,12.13
2018-09-14T04:27:12.204Z,10.97
2018-09-14T04:29:42.960Z,11.10
2018-09-14T04:32:13.654Z,11.27
2018-09-14T04:34:44.556Z,10.93
2018-09-14T04:37:15.477Z,11.07
2018-09-14T04:39:46.209Z,11.07
2018-09-14T04:42:16.953Z,16.53
2018-09-14T04:44:47.976Z,11.90
2018-09-14T04:47:23.377Z,12.27
2018-09-14T04:49:54.262Z,10.33
2018-09-14T04:52:25.377Z,10.80
2018-09-14T04:54:56.127Z,11.23
2018-09-14T04:57:26.924Z,11.23
2018-09-14T04:59:57.703Z,13.17
2018-09-14T05:02:28.552Z,11.40
2018-09-14T05:04:59.534Z,10.77
2018-09-14T05:07:30.320Z,11.17
2018-09-14T05:10:01.916Z,12.23
2018-09-14T05:12:32.690Z,10.60
2018-09-14T05:15:03.365Z,10.90
2018-09-14T05:17:34.029Z,12.67
2018-09-14T05:20:04.874Z,11.53
2018-09-14T05:22:35.620Z,11.23
2018-09-14T05:25:06.647Z,11.77
2018-09-14T05:27:37.378Z,11.37
2018-09-14T05:30:08.233Z,11.67
2018-09-14T05:32:39.058Z,12.77
2018-09-14T05:35:10.232Z,13.03
2018-09-14T05:37:41.034Z,13.10
2018-09-14T05:40:11.764Z,13.67
2018-09-14T05:42:42.548Z,13.43
2018-09-14T05:45:13.196Z,14.37
2018-09-14T05:47:43.917Z,12.93
2018-09-14T05:50:14.598Z,13.17
2018-09-14T05:52:45.330Z,13.60
2018-09-14T05:55:16.080Z,14.93
2018-09-14T05:57:46.837Z,14.67
2018-09-14T06:00:17.528Z,13.97
2018-09-14T06:02:48.272Z,14.63
2018-09-14T06:05:19.047Z,14.77
2018-09-14T06:07:49.880Z,17.10
2018-09-14T06:10:20.714Z,17.10
2018-09-14T06:12:51.544Z,18.27
2018-09-14T06:15:22.516Z,18.57
2018-09-14T06:17:53.330Z,18.57
2018-09-14T06:20:24.652Z,16.53
2018-09-14T06:22:55.483Z,19.40
2018-09-14T06:25:26.832Z,17.70
2018-09-14T06:27:57.529Z,20.07
2018-09-14T06:30:28.304Z,18.50
2018-09-14T06:32:59.526Z,18.67
2018-09-14T06:35:30.347Z,16.30
2018-09-14T06:38:01.065Z,15.93
2018-09-14T06:40:31.879Z,18.30
2018-09-14T06:43:03.257Z,16.40
2018-09-14T06:45:34.004Z,16.03
2018-09-14T06:48:04.703Z,15.30
2018-09-14T06:50:35.440Z,16.63
2018-09-14T06:53:06.122Z,15.83
2018-09-14T06:55:36.807Z,17.43
2018-09-14T06:58:07.619Z,14.80
2018-09-14T07:00:38.326Z,15.70
2018-09-14T07:03:09.229Z,16.17
2018-09-14T07:05:40.020Z,15.13
2018-09-14T07:08:10.725Z,15.37
2018-09-14T07:10:41.481Z,15.10
2018-09-14T07:13:12.161Z,14.30
2018-09-14T07:15:42.850Z,14.87
2018-09-14T07:18:13.658Z,14.67
2018-09-14T07:20:44.404Z,14.47
2018-09-14T07:23:15.246Z,15.87
2018-09-14T07:25:46.151Z,18.03
2018-09-14T07:28:17.799Z,16.27
2018-09-14T07:30:48.699Z,28.27
2018-09-14T07:33:19.560Z,14.77
2018-09-14T07:35:50.348Z,14.63
2018-09-14T07:38:21.198Z,15.17
2018-09-14T07:40:52.095Z,17.90
2018-09-14T07:43:23.489Z,15.93
2018-09-14T07:45:54.270Z,15.17
2018-09-14T07:48:25.204Z,19.67
2018-09-14T07:50:55.910Z,17.73
2018-09-14T07:53:26.732Z,18.17
2018-09-14T07:55:57.545Z,15.27
2018-09-14T07:58:29.212Z,16.57
2018-09-14T08:00:59.986Z,14.90
2018-09-14T08:03:32.389Z,17.10
2018-09-14T08:06:03.192Z,18.60
2018-09-14T08:08:33.903Z,18.30
2018-09-14T08:11:04.652Z,16.13
2018-09-14T08:13:35.421Z,16.57
2018-09-14T08:16:06.274Z,18.50
2018-09-14T08:18:37.150Z,16.03
2018-09-14T08:21:07.968Z,18.67
2018-09-14T08:23:38.971Z,17.57
2018-09-14T08:26:09.802Z,18.10
2018-09-14T08:28:40.584Z,17.53
2018-09-14T08:31:11.392Z,15.93
2018-09-14T08:33:42.270Z,14.60
2018-09-14T08:36:13.053Z,15.73
2018-09-14T08:38:43.888Z,16.40
2018-09-14T08:41:14.961Z,18.27
2018-09-14T08:46:26.914Z,15.60
2018-09-14T08:48:57.804Z,15.00
2018-09-14T08:51:28.505Z,13.40
2018-09-14T08:53:59.329Z,15.20
2018-09-14T08:56:30.447Z,18.93
2018-09-14T08:59:01.370Z,17.47
2018-09-14T09:01:32.367Z,14.67
2018-09-14T09:04:03.634Z,16.83
2018-09-14T09:06:34.362Z,18.17
2018-09-14T09:09:08.580Z,15.30
2018-09-14T09:11:39.710Z,15.13
2018-09-14T09:14:10.549Z,13.83
2018-09-14T09:16:41.553Z,13.60
2018-09-14T09:19:12.308Z,9.93
2018-09-14T09:21:43.056Z,11.07
2018-09-14T09:24:13.847Z,12.50
2018-09-14T09:26:44.807Z,10.30
2018-09-14T09:29:16.725Z,11.87
2018-09-14T09:31:47.992Z,13.07
2018-09-14T09:34:18.754Z,11.27
2018-09-14T09:36:49.992Z,11.53
2018-09-14T09:39:20.924Z,12.87
2018-09-14T09:41:51.832Z,12.50
2018-09-14T09:44:22.579Z,13.30
2018-09-14T09:46:53.493Z,10.23
2018-09-14T09:49:24.469Z,13.40
2018-09-14T09:51:55.281Z,11.20
2018-09-14T09:54:26.042Z,12.43
2018-09-14T09:56:56.810Z,12.83
2018-09-14T09:59:27.662Z,12.17
2018-09-14T10:02:03.448Z,9.50
2018-09-14T10:04:52.417Z,10.20
2018-09-14T10:10:33.444Z,12.97
2018-09-14T10:16:08.678Z,12.40
2018-09-14T10:18:45.910Z,7.03
2018-09-14T10:21:43.598Z,6.53
2018-09-14T10:24:14.548Z,8.27
2018-09-14T10:26:46.270Z,11.90
2018-09-14T10:29:17.067Z,10.50
2018-09-14T10:31:48.205Z,14.63
2018-09-14T10:34:20.378Z,8.57
2018-09-14T10:36:53.307Z,8.50
2018-09-14T10:39:30.443Z,7.87
2018-09-14T10:42:01.405Z,9.63
2018-09-14T10:44:33.060Z,15.40
2018-09-14T10:47:10.446Z,9.33
2018-09-14T10:49:47.850Z,7.87
2018-09-14T10:52:18.697Z,10.63
2018-09-14T10:54:49.488Z,11.73
2018-09-14T10:57:20.359Z,10.23
2018-09-14T10:59:52.044Z,10.30
2018-09-14T11:02:24.322Z,9.97
2018-09-14T11:04:55.250Z,8.40
2018-09-14T11:07:26.055Z,8.33
2018-09-14T11:09:57.854Z,9.57
2018-09-14T11:12:29.037Z,9.13
2018-09-14T11:14:59.959Z,10.67
2018-09-14T11:17:30.983Z,10.87
2018-09-14T11:20:01.856Z,11.23
2018-09-14T11:22:32.665Z,9.10
2018-09-14T11:25:03.553Z,9.97
2018-09-14T11:27:34.467Z,8.47
2018-09-14T11:30:06.134Z,12.13
2018-09-14T11:32:36.856Z,10.43
2018-09-14T11:35:07.619Z,9.87
2018-09-14T11:37:38.310Z,11.03
2018-09-14T11:40:09.100Z,8.57
2018-09-14T11:42:39.809Z,9.03
2018-09-14T11:45:10.647Z,9.37
2018-09-14T11:47:41.361Z,8.17
2018-09-14T11:50:12.207Z,5.70
2018-09-14T11:52:42.916Z,5.37
2018-09-14T11:55:13.647Z,9.70
2018-09-14T11:57:44.308Z,8.53
2018-09-14T12:00:15.231Z,8.93
2018-09-14T12:02:45.965Z,8.30
2018-09-14T12:05:16.718Z,8.73
2018-09-14T12:07:47.417Z,8.13
2018-09-14T12:10:18.343Z,10.37
2018-09-14T12:12:49.001Z,10.17
2018-09-14T12:15:19.737Z,9.33
2018-09-14T12:17:50.425Z,9.20
2018-09-14T12:20:21.125Z,10.20
2018-09-14T12:22:51.788Z,8.23
2018-09-14T12:25:22.528Z,7.57
2018-09-14T12:27:53.277Z,9.50
2018-09-14T12:30:24.054Z,8.77
2018-09-14T12:32:54.995Z,9.37
2018-09-14T12:35:25.765Z,8.27
2018-09-14T12:37:56.597Z,7.90
2018-09-14T12:40:27.347Z,11.90
2018-09-14T12:42:58.338Z,8.33
2018-09-14T12:45:29.225Z,9.80
2018-09-14T12:48:00.015Z,8.90
2018-09-14T12:50:30.762Z,7.57
2018-09-14T12:53:01.766Z,6.23
2018-09-14T12:55:32.496Z,11.00
2018-09-14T12:58:03.232Z,7.67
2018-09-14T13:00:33.886Z,25.70
2018-09-14T13:03:04.631Z,9.30
2018-09-14T13:05:35.341Z,10.00
2018-09-14T13:08:06.064Z,9.07
2018-09-14T13:10:36.772Z,7.70
2018-09-14T13:13:07.588Z,10.20
2018-09-14T13:15:38.240Z,8.50
2018-09-14T13:18:09.048Z,7.53
2018-09-14T13:20:39.735Z,7.17
2018-09-14T13:23:10.446Z,8.17
2018-09-14T13:25:41.171Z,7.67
2018-09-14T13:28:11.900Z,8.77
2018-09-14T13:30:42.639Z,10.50
2018-09-14T13:33:13.455Z,6.63
2018-09-14T13:35:44.153Z,7.97
2018-09-14T13:38:14.933Z,10.07
2018-09-14T13:40:45.650Z,6.83
2018-09-14T13:43:16.360Z,12.13
2018-09-14T13:45:47.090Z,8.73
2018-09-14T13:48:17.842Z,7.47
2018-09-14T13:50:48.695Z,10.67
2018-09-14T13:53:19.617Z,9.67
2018-09-14T13:55:51.025Z,7.03
2018-09-14T13:58:22.843Z,7.43
2018-09-14T14:00:53.574Z,7.13
2018-09-14T14:03:24.281Z,5.77
2018-09-14T14:05:55.562Z,6.80
2018-09-14T14:08:28.835Z,7.27
2018-09-14T14:11:00.879Z,8.50
2018-09-14T14:13:36.147Z,8.20
2018-09-14T14:16:07.145Z,8.27
2018-09-14T14:18:38.026Z,7.73
2018-09-14T14:21:09.797Z,7.40
2018-09-14T14:23:40.572Z,6.07
2018-09-14T14:26:12.094Z,5.13
2018-09-14T14:28:42.880Z,7.00
2018-09-14T14:31:13.546Z,6.70
2018-09-14T14:33:44.268Z,6.87
2018-09-14T14:36:15.660Z,7.20
2018-09-14T14:38:46.992Z,6.47
2018-09-14T14:41:17.750Z,9.47
2018-09-14T14:43:48.561Z,6.40
2018-09-14T14:46:19.323Z,6.73
2018-09-14T14:48:48.972Z,6.20
2018-09-14T14:51:19.456Z,6.43
2018-09-14T14:53:50.212Z,6.67
2018-09-14T14:56:21.009Z,5.77
2018-09-14T14:58:51.692Z,7.00
2018-09-14T15:01:23.171Z,7.83
2018-09-14T15:03:54.008Z,5.80
2018-09-14T15:06:24.805Z,6.30
2018-09-14T15:08:55.599Z,4.47
2018-09-14T15:11:26.319Z,7.97
2018-09-14T15:13:57.127Z,6.07
2018-09-14T15:16:27.908Z,5.37
2018-09-14T15:18:58.611Z,6.60
2018-09-14T15:21:29.288Z,5.53
2018-09-14T15:24:00.008Z,7.53
2018-09-14T15:26:30.711Z,6.53
2018-09-14T15:29:01.343Z,5.60
2018-09-14T15:31:32.041Z,4.00
2018-09-14T15:34:02.800Z,6.47
2018-09-14T15:36:33.506Z,7.23
2018-09-14T15:39:06.201Z,5.37
2018-09-14T15:41:37.089Z,6.07
2018-09-14T15:44:08.034Z,5.73
2018-09-14T15:46:38.743Z,6.13
2018-09-14T15:49:09.490Z,5.90
2018-09-14T15:51:40.262Z,4.73
2018-09-14T15:54:10.943Z,6.37
2018-09-14T15:56:41.659Z,5.97
2018-09-14T15:59:12.309Z,5.27
2018-09-14T16:01:42.965Z,5.57
2018-09-14T16:04:14.192Z,6.13
2018-09-14T16:06:44.925Z,6.27
2018-09-14T16:09:15.556Z,5.10
2018-09-14T16:11:46.409Z,4.30
2018-09-14T16:14:17.209Z,5.23
2018-09-14T16:16:48.010Z,5.57
2018-09-14T16:19:20.246Z,6.27
2018-09-14T16:21:50.902Z,6.20
2018-09-14T16:24:21.711Z,8.83
2018-09-14T16:26:52.513Z,3.63
2018-09-14T16:29:23.178Z,5.37
2018-09-14T16:31:53.975Z,6.47
2018-09-14T16:34:24.602Z,7.40
2018-09-14T16:36:55.361Z,7.20
2018-09-14T16:39:26.044Z,5.77
2018-09-14T16:41:56.750Z,6.37
2018-09-14T16:44:27.470Z,5.47
2018-09-14T16:46:58.167Z,5.23
2018-09-14T16:49:28.862Z,5.20
2018-09-14T16:51:59.612Z,7.40
2018-09-14T16:54:30.283Z,5.33
2018-09-14T16:57:01.003Z,6.60
2018-09-14T16:59:31.698Z,6.57
2018-09-14T17:02:02.379Z,7.43
2018-09-14T17:04:33.092Z,8.23
2018-09-14T17:07:03.752Z,8.47
2018-09-14T17:09:34.537Z,6.63
2018-09-14T17:12:05.386Z,7.37
2018-09-14T17:14:36.190Z,10.33
2018-09-14T17:17:06.962Z,7.00
2018-09-14T17:19:47.277Z,6.93
2018-09-14T17:22:20.643Z,6.57
2018-09-14T17:24:52.769Z,9.03
2018-09-14T17:27:24.976Z,9.47
2018-09-14T17:29:56.528Z,8.07
2018-09-14T17:32:30.012Z,5.20
2018-09-14T17:35:02.288Z,6.27
2018-09-14T17:37:34.130Z,4.60
2018-09-14T17:40:05.003Z,6.57
2018-09-14T17:42:36.487Z,6.00
2018-09-14T17:45:07.482Z,6.93
2018-09-14T17:47:40.576Z,7.67
2018-09-14T17:50:12.092Z,6.47
2018-09-14T17:52:43.053Z,6.93
2018-09-14T17:55:14.486Z,6.17
2018-09-14T17:57:47.167Z,6.17
2018-09-14T18:00:19.805Z,4.67
2018-09-14T18:02:52.395Z,6.40
2018-09-14T18:05:23.524Z,4.53
2018-09-14T18:07:55.742Z,5.47
2018-09-14T18:10:26.490Z,7.17
2018-09-14T18:12:58.891Z,5.70
2018-09-14T18:15:31.565Z,6.50
2018-09-14T18:18:06.650Z,5.50
2018-09-14T18:20:39.704Z,7.50
2018-09-14T18:23:11.115Z,6.03
2018-09-14T18:25:42.320Z,5.87
2018-09-14T18:28:20.601Z,7.10
2018-09-14T18:30:51.856Z,5.10
2018-09-14T18:33:24.086Z,6.27
2018-09-14T18:35:55.025Z,5.43
2018-09-14T18:38:26.225Z,6.97
2018-09-14T18:40:57.283Z,6.50
2018-09-14T18:43:30.069Z,5.10
2018-09-14T18:46:00.845Z,5.80
2018-09-14T18:48:31.595Z,4.73
2018-09-14T18:51:02.823Z,9.23
2018-09-14T18:53:33.600Z,6.07
2018-09-14T18:56:04.395Z,6.93
2018-09-14T18:58:35.150Z,8.27
2018-09-14T19:01:05.940Z,8.60
2018-09-14T19:03:36.713Z,5.10
2018-09-14T19:06:07.624Z,4.77
2018-09-14T19:08:38.418Z,5.20
2018-09-14T19:11:09.228Z,5.30
2018-09-14T19:13:39.964Z,6.57
2018-09-14T19:16:12.631Z,5.30
2018-09-14T19:18:45.231Z,5.83
2018-09-14T19:21:16.017Z,5.13
2018-09-14T19:23:46.712Z,6.47
2018-09-14T19:26:17.487Z,6.00
2018-09-14T19:28:48.239Z,5.37
2018-09-14T19:31:19.089Z,3.87
2018-09-14T19:33:50.929Z,5.80
2018-09-14T19:36:22.026Z,4.37
2018-09-14T19:38:52.831Z,6.40
2018-09-14T19:41:28.162Z,7.10
2018-09-14T19:43:58.919Z,4.90
2018-09-14T19:46:29.723Z,6.30
2018-09-14T19:49:00.832Z,7.00
2018-09-14T19:51:32.848Z,6.43
2018-09-14T19:54:09.252Z,6.27
2018-09-14T19:56:40.049Z,6.63
2018-09-14T19:59:10.721Z,5.70
2018-09-14T20:01:42.385Z,5.63
2018-09-14T20:04:13.129Z,5.10
2018-09-14T20:06:43.815Z,5.00
2018-09-14T20:09:15.569Z,5.43
2018-09-14T20:12:00.048Z,6.33
2018-09-14T20:14:31.341Z,4.80
2018-09-14T20:17:02.077Z,6.17
2018-09-14T20:19:32.771Z,6.43
2018-09-14T20:22:06.087Z,5.23
2018-09-14T20:24:37.603Z,6.10
2018-09-14T20:27:08.416Z,5.90
2018-09-14T20:29:39.082Z,5.03
2018-09-14T20:32:11.609Z,5.83
2018-09-14T20:34:42.452Z,5.63
2018-09-14T20:37:16.043Z,6.63
2018-09-14T20:39:46.947Z,10.10
2018-09-14T20:42:17.700Z,6.97
2018-09-14T20:44:48.428Z,6.63
2018-09-14T20:47:19.290Z,7.70
2018-09-14T20:49:50.008Z,6.50
2018-09-14T20:52:21.297Z,5.63
2018-09-14T20:54:51.994Z,8.10
2018-09-14T20:57:22.808Z,6.57
2018-09-14T20:59:53.452Z,6.60
2018-09-14T21:02:24.228Z,6.77
2018-09-14T21:04:56.748Z,7.43
2018-09-14T21:07:27.596Z,8.37
2018-09-14T21:09:58.402Z,8.07
2018-09-14T21:12:29.164Z,7.63
2018-09-14T21:14:59.854Z,8.23
2018-09-14T21:17:30.685Z,6.50
2018-09-14T21:20:01.429Z,5.90
2018-09-14T21:22:32.196Z,8.23
2018-09-14T21:25:03.224Z,6.90
2018-09-14T21:27:34.001Z,9.10
2018-09-14T21:30:06.118Z,11.03
2018-09-14T21:32:37.739Z,10.00
2018-09-14T21:35:08.527Z,12.17
2018-09-14T21:37:39.269Z,11.33
2018-09-14T21:40:10.049Z,9.17
2018-09-14T21:42:40.837Z,6.13
2018-09-14T21:45:11.564Z,9.73
2018-09-14T21:47:42.328Z,9.43
2018-09-14T21:50:12.977Z,8.50
2018-09-14T21:52:43.702Z,8.27
2018-09-14T21:55:14.428Z,8.97
2018-09-14T21:57:45.147Z,7.40
2018-09-14T22:00:21.021Z,7.90
2018-09-14T22:02:51.780Z,8.73
2018-09-14T22:05:22.652Z,9.00
2018-09-14T22:07:53.428Z,8.40
2018-09-14T22:10:24.208Z,7.20
2018-09-14T22:12:54.945Z,9.53
2018-09-14T22:15:25.741Z,9.07
2018-09-14T22:17:56.460Z,11.57
2018-09-14T22:20:27.215Z,8.53
2018-09-14T22:22:57.964Z,7.60
2018-09-14T22:25:28.673Z,7.77
2018-09-14T22:27:59.455Z,7.83
2018-09-14T22:30:30.134Z,8.47
2018-09-14T22:33:00.905Z,11.53
2018-09-14T22:35:31.646Z,11.13
2018-09-14T22:38:02.439Z,9.80
2018-09-14T22:40:33.228Z,6.43
2018-09-14T22:43:04.299Z,7.57
2018-09-14T22:45:35.076Z,8.17
2018-09-14T22:48:05.828Z,6.93
2018-09-14T22:50:36.841Z,7.43
2018-09-14T22:53:07.620Z,7.50
2018-09-14T22:55:38.358Z,7.67
2018-09-14T22:58:09.263Z,6.50
2018-09-14T23:00:45.145Z,8.67
2018-09-14T23:03:15.940Z,6.53
2018-09-14T23:05:46.617Z,7.40
2018-09-14T23:08:17.359Z,7.97
2018-09-14T23:10:48.046Z,8.03
2018-09-14T23:13:18.867Z,7.27
2018-09-14T23:15:59.964Z,8.33
2018-09-14T23:18:31.632Z,7.17
2018-09-14T23:21:02.697Z,6.97
2018-09-14T23:23:33.524Z,9.30
2018-09-14T23:26:09.421Z,8.73
2018-09-14T23:28:40.107Z,9.67
2018-09-14T23:31:10.780Z,7.57
2018-09-14T23:33:41.472Z,6.87
2018-09-14T23:36:12.212Z,7.47
2018-09-14T23:38:42.911Z,7.07
2018-09-14T23:41:13.674Z,11.00
2018-09-14T23:43:44.786Z,6.47
2018-09-14T23:46:15.575Z,7.80
2018-09-14T23:48:46.285Z,6.87
2018-09-14T23:51:16.996Z,10.13
2018-09-14T23:53:47.723Z,7.30
2018-09-14T23:56:18.484Z,6.17
2018-09-14T23:58:49.246Z,5.87
